createdAt,value
2022-11-24T00:01:31.319Z,92.04
2022-11-24T00:04:04.243Z,92.74
2022-11-24T00:06:35.747Z,92.10
2022-11-24T00:09:06.124Z,92.68
2022-11-24T00:11:36.656Z,91.61
2022-11-24T00:14:06.994Z,90.90
2022-11-24T00:16:37.697Z,91.86
2022-11-24T00:19:10.456Z,93.79
2022-11-24T00:21:40.063Z,93.40
2022-11-24T00:24:09.221Z,93.02
2022-11-24T00:26:38.535Z,93.48
2022-11-24T00:29:08.885Z,93.51
2022-11-24T00:31:39.766Z,92.58
2022-11-24T00:34:13.605Z,92.08
2022-11-24T00:36:43.434Z,93.44
2022-11-24T00:39:14.366Z,95.65
2022-11-24T00:41:44.083Z,95.37
2022-11-24T00:44:13.103Z,96.14
2022-11-24T00:46:42.248Z,97.73
2022-11-24T00:49:12.713Z,98.91
2022-11-24T00:51:42.045Z,99.08
2022-11-24T00:54:11.045Z,97.67
2022-11-24T00:56:40.077Z,97.74
2022-11-24T00:59:09.209Z,99.74
2022-11-24T01:01:38.323Z,99.24
2022-11-24T01:04:07.500Z,97.49
2022-11-24T01:06:38.048Z,96.89
2022-11-24T01:09:07.045Z,100.00
2022-11-24T01:11:50.960Z,100.00
2022-11-24T01:14:20.844Z,100.00
2022-11-24T01:16:50.404Z,100.00
2022-11-24T01:19:20.021Z,98.44
2022-11-24T01:21:50.544Z,96.41
2022-11-24T01:24:19.848Z,95.17
2022-11-24T01:26:48.897Z,94.29
2022-11-24T01:29:17.921Z,95.32
2022-11-24T01:31:46.959Z,94.76
2022-11-24T01:34:16.074Z,95.87
2022-11-24T01:36:45.156Z,96.04
2022-11-24T01:39:15.682Z,96.22
2022-11-24T01:41:44.667Z,93.67
2022-11-24T01:44:25.197Z,93.58
2022-11-24T01:46:58.846Z,93.60
2022-11-24T01:49:37.760Z,95.69
2022-11-24T01:52:12.400Z,92.47
2022-11-24T01:54:45.845Z,91.75
2022-11-24T01:57:21.045Z,94.27
2022-11-24T01:59:54.825Z,91.19
2022-11-24T02:02:29.875Z,92.05
2022-11-24T02:05:03.320Z,91.48
2022-11-24T02:07:32.940Z,94.51
2022-11-24T02:10:07.561Z,94.85
2022-11-24T02:12:39.378Z,96.08
2022-11-24T02:15:11.874Z,95.66
2022-11-24T02:17:40.940Z,96.84
2022-11-24T02:20:11.895Z,95.54
2022-11-24T02:22:49.996Z,96.58
2022-11-24T02:25:29.167Z,95.12
2022-11-24T02:28:01.730Z,96.79
2022-11-24T02:30:30.950Z,94.79
2022-11-24T02:33:00.770Z,92.50
2022-11-24T02:35:30.301Z,91.17
2022-11-24T02:37:59.324Z,91.41
2022-11-24T02:40:31.087Z,91.46
2022-11-24T02:43:08.019Z,89.68
2022-11-24T02:45:37.054Z,92.38
2022-11-24T02:48:06.705Z,91.81
2022-11-24T02:50:35.826Z,91.50
2022-11-24T02:53:04.844Z,91.93
2022-11-24T02:55:34.170Z,92.68
2022-11-24T02:58:04.620Z,92.14
2022-11-24T03:00:33.669Z,91.64
2022-11-24T03:03:03.305Z,92.66
2022-11-24T03:05:32.396Z,94.79
2022-11-24T03:08:02.023Z,95.17
2022-11-24T03:10:31.029Z,92.71
2022-11-24T03:13:00.119Z,93.43
2022-11-24T03:15:31.338Z,94.48
2022-11-24T03:18:00.412Z,91.57
2022-11-24T03:20:30.372Z,91.44
2022-11-24T03:22:59.430Z,90.91
2022-11-24T03:25:28.458Z,91.98
2022-11-24T03:27:58.927Z,90.63
2022-11-24T03:30:27.936Z,93.30
2022-11-24T03:32:58.358Z,92.59
2022-11-24T03:35:27.364Z,92.18
2022-11-24T03:37:56.362Z,90.98
2022-11-24T03:40:25.342Z,93.65
2022-11-24T03:42:54.324Z,94.54
2022-11-24T03:45:44.832Z,94.20
2022-11-24T03:48:13.821Z,92.90
2022-11-24T03:50:42.849Z,91.63
2022-11-24T03:53:11.884Z,90.70
2022-11-24T03:55:40.833Z,90.69
2022-11-24T03:58:09.818Z,89.89
2022-11-24T04:00:38.800Z,89.86
2022-11-24T04:03:07.866Z,94.46
2022-11-24T04:05:38.549Z,96.25
2022-11-24T04:08:08.059Z,94.88
2022-11-24T04:10:39.278Z,92.34
2022-11-24T04:13:12.972Z,97.68
2022-11-24T04:15:42.938Z,99.25
2022-11-24T04:18:13.577Z,96.99
2022-11-24T04:20:44.009Z,94.81
2022-11-24T04:23:13.187Z,95.63
2022-11-24T04:25:43.724Z,100.00
2022-11-24T04:28:13.886Z,100.00
2022-11-24T04:30:44.706Z,100.00
2022-11-24T04:33:14.459Z,98.95
2022-11-24T04:35:44.704Z,92.50
2022-11-24T04:38:13.563Z,89.85
2022-11-24T04:41:04.169Z,88.91
2022-11-24T04:43:39.144Z,88.43
2022-11-24T04:46:12.338Z,90.05
2022-11-24T04:48:41.259Z,91.35
2022-11-24T04:51:13.088Z,90.57
2022-11-24T04:53:42.432Z,92.71
2022-11-24T04:56:11.526Z,92.38
2022-11-24T04:58:40.512Z,97.45
2022-11-24T05:01:09.972Z,94.03
2022-11-24T05:03:38.851Z,93.10
2022-11-24T05:06:08.916Z,96.14
2022-11-24T05:08:39.209Z,97.44
2022-11-24T05:11:08.758Z,93.85
2022-11-24T05:13:37.648Z,97.87
2022-11-24T05:16:07.106Z,99.75
2022-11-24T05:18:36.023Z,97.24
2022-11-24T05:21:05.941Z,94.56
2022-11-24T05:23:34.783Z,94.50
2022-11-24T05:26:05.574Z,91.99
2022-11-24T05:28:34.449Z,90.65
2022-11-24T05:31:05.094Z,92.47
2022-11-24T05:33:34.033Z,93.23
2022-11-24T05:36:04.274Z,94.45
2022-11-24T05:38:33.988Z,92.74
2022-11-24T05:41:05.798Z,96.57
2022-11-24T05:43:34.639Z,94.65
2022-11-24T05:46:03.793Z,96.87
2022-11-24T05:48:32.596Z,96.59
2022-11-24T05:51:06.455Z,93.79
2022-11-24T05:53:37.953Z,97.34
2022-11-24T05:56:09.123Z,96.32
2022-11-24T05:58:38.088Z,93.23
2022-11-24T06:01:07.920Z,94.46
2022-11-24T06:03:36.840Z,91.77
2022-11-24T06:06:05.804Z,92.99
2022-11-24T06:08:35.380Z,92.80
2022-11-24T06:11:17.328Z,91.83
2022-11-24T06:13:49.493Z,96.29
2022-11-24T06:16:18.726Z,92.20
2022-11-24T06:18:47.704Z,90.72
2022-11-24T06:21:17.268Z,94.08
2022-11-24T06:23:49.061Z,92.71
2022-11-24T06:26:18.368Z,94.06
2022-11-24T06:28:48.680Z,90.10
2022-11-24T06:31:17.678Z,87.53
2022-11-24T06:33:46.981Z,87.34
2022-11-24T06:36:16.204Z,86.83
2022-11-24T06:38:45.179Z,85.45
2022-11-24T06:41:15.815Z,79.92
2022-11-24T06:43:45.649Z,80.52
2022-11-24T06:46:16.060Z,79.69
2022-11-24T06:48:45.051Z,78.24
2022-11-24T06:51:14.410Z,79.05
2022-11-24T06:53:43.318Z,76.42
2022-11-24T06:56:16.665Z,74.16
2022-11-24T06:58:48.026Z,73.49
2022-11-24T07:01:19.133Z,75.56
2022-11-24T07:03:49.077Z,74.23
2022-11-24T07:06:19.002Z,72.04
2022-11-24T07:08:48.384Z,75.39
2022-11-24T07:11:19.721Z,75.18
2022-11-24T07:13:53.838Z,75.53
2022-11-24T07:16:29.776Z,74.80
2022-11-24T07:18:59.203Z,69.47
2022-11-24T07:21:29.385Z,68.09
2022-11-24T07:23:59.014Z,66.08
2022-11-24T07:26:28.319Z,64.58
2022-11-24T07:28:57.200Z,63.25
2022-11-24T07:31:26.180Z,62.02
2022-11-24T07:33:56.953Z,58.93
2022-11-24T07:36:26.135Z,57.59
2022-11-24T07:38:55.296Z,55.60
2022-11-24T07:41:24.270Z,56.65
2022-11-24T07:43:53.220Z,67.65
2022-11-24T07:46:22.219Z,69.56
2022-11-24T07:48:51.092Z,67.15
2022-11-24T07:51:21.301Z,67.74
2022-11-24T07:53:50.151Z,69.75
2022-11-24T07:56:19.013Z,62.11
2022-11-24T07:58:52.594Z,61.78
2022-11-24T08:01:22.110Z,65.07
2022-11-24T08:03:51.107Z,63.14
2022-11-24T08:06:26.231Z,56.50
2022-11-24T08:08:56.883Z,64.32
2022-11-24T08:11:26.264Z,74.95
2022-11-24T08:13:55.356Z,81.48
2022-11-24T08:16:24.307Z,79.39
2022-11-24T08:18:54.678Z,69.24
2022-11-24T08:21:25.468Z,64.71
2022-11-24T08:23:58.416Z,61.29
2022-11-24T08:26:27.483Z,64.29
2022-11-24T08:28:58.898Z,70.76
2022-11-24T08:31:33.583Z,70.87
2022-11-24T08:34:03.715Z,65.71
2022-11-24T08:36:34.895Z,63.04
2022-11-24T08:39:03.913Z,68.15
2022-11-24T08:41:33.266Z,66.10
2022-11-24T08:44:02.176Z,68.96
2022-11-24T08:46:31.073Z,69.77
2022-11-24T08:49:00.167Z,81.05
2022-11-24T08:51:29.882Z,76.33
2022-11-24T08:54:02.079Z,77.64
2022-11-24T08:56:32.125Z,78.81
2022-11-24T08:59:02.144Z,81.86
2022-11-24T09:01:31.149Z,82.65
2022-11-24T09:04:00.532Z,85.12
2022-11-24T09:06:31.411Z,83.07
2022-11-24T09:09:02.547Z,82.74
2022-11-24T09:11:32.244Z,84.00
2022-11-24T09:14:01.121Z,82.43
2022-11-24T09:16:30.774Z,85.62
2022-11-24T09:19:02.046Z,85.13
2022-11-24T09:21:32.442Z,89.79
2022-11-24T09:24:03.276Z,96.46
2022-11-24T09:26:34.034Z,97.85
2022-11-24T09:29:08.061Z,100.00
2022-11-24T09:31:39.298Z,99.89
2022-11-24T09:34:16.682Z,100.00
2022-11-24T09:36:46.170Z,100.00
2022-11-24T09:39:16.741Z,100.00
2022-11-24T09:42:12.821Z,100.00
2022-11-24T09:45:11.171Z,100.00
2022-11-24T09:47:53.026Z,100.00
2022-11-24T09:50:25.266Z,100.00
2022-11-24T09:53:01.199Z,100.00
2022-11-24T09:55:40.181Z,100.00
2022-11-24T09:58:36.535Z,100.00
2022-11-24T10:01:11.057Z,100.00
2022-11-24T10:03:45.162Z,100.00
2022-11-24T10:06:23.847Z,100.00
2022-11-24T10:09:19.918Z,100.00
2022-11-24T10:12:04.666Z,100.00
2022-11-24T10:14:52.445Z,100.00
2022-11-24T10:17:32.963Z,100.00
2022-11-24T10:20:07.080Z,100.00
2022-11-24T10:22:51.273Z,100.00
2022-11-24T10:25:26.010Z,100.00
2022-11-24T10:28:01.137Z,100.00
2022-11-24T10:30:31.044Z,100.00
2022-11-24T10:33:05.052Z,100.00
2022-11-24T10:35:41.175Z,100.00
2022-11-24T10:38:27.575Z,100.00
2022-11-24T10:41:01.947Z,100.00
2022-11-24T10:43:32.482Z,100.00
2022-11-24T10:46:12.149Z,100.00
2022-11-24T10:48:46.810Z,100.00
2022-11-24T10:51:38.218Z,100.00
2022-11-24T10:54:13.710Z,100.00
2022-11-24T10:56:43.773Z,100.00
2022-11-24T10:59:36.768Z,100.00
2022-11-24T11:02:29.544Z,100.00
2022-11-24T11:04:58.753Z,100.00
2022-11-24T11:07:28.406Z,100.00
2022-11-24T11:10:22.440Z,100.00
2022-11-24T11:12:51.431Z,100.00
2022-11-24T11:15:26.779Z,100.00
2022-11-24T11:17:59.556Z,100.00
2022-11-24T11:20:33.747Z,100.00
2022-11-24T11:23:14.481Z,100.00
2022-11-24T11:25:43.748Z,100.00
2022-11-24T11:28:24.209Z,100.00
2022-11-24T11:31:21.124Z,100.00
2022-11-24T11:34:03.831Z,100.00
2022-11-24T11:36:34.811Z,100.00
2022-11-24T11:39:05.153Z,100.00
2022-11-24T11:41:37.369Z,100.00
2022-11-24T11:44:21.397Z,100.00
2022-11-24T11:46:51.780Z,100.00
2022-11-24T11:49:20.659Z,100.00
2022-11-24T11:52:30.998Z,100.00
2022-11-24T11:55:29.883Z,100.00
2022-11-24T11:58:11.442Z,100.00
2022-11-24T12:00:46.973Z,98.79
2022-11-24T12:03:47.550Z,94.53
2022-11-24T12:06:32.863Z,95.62
2022-11-24T12:09:20.250Z,100.00
2022-11-24T12:12:04.024Z,100.00
2022-11-24T12:14:42.811Z,99.57
2022-11-24T12:17:19.956Z,96.48
2022-11-24T12:20:17.467Z,100.00
2022-11-24T12:22:52.731Z,95.85
2022-11-24T12:25:28.754Z,99.18
2022-11-24T12:28:12.503Z,98.99
2022-11-24T12:30:50.756Z,97.91
2022-11-24T12:33:50.969Z,97.49
2022-11-24T12:36:38.051Z,96.51
2022-11-24T12:39:18.193Z,99.41
2022-11-24T12:42:00.941Z,100.00
2022-11-24T12:44:42.324Z,100.00
2022-11-24T12:47:18.241Z,98.46
2022-11-24T12:50:00.245Z,95.86
2022-11-24T12:52:35.138Z,96.24
2022-11-24T12:55:04.870Z,95.82
2022-11-24T12:57:42.736Z,95.57
2022-11-24T13:00:20.739Z,94.18
2022-11-24T13:03:05.758Z,92.76
2022-11-24T13:05:42.570Z,95.64
2022-11-24T13:08:13.162Z,95.48
2022-11-24T13:10:57.990Z,97.83
2022-11-24T13:13:29.301Z,94.52
2022-11-24T13:19:09.251Z,91.90
2022-11-24T13:21:51.856Z,87.66
2022-11-24T13:24:27.780Z,87.38
2022-11-24T13:27:39.941Z,86.37
2022-11-24T13:30:54.437Z,89.57
2022-11-24T13:33:35.040Z,90.58
2022-11-24T13:36:36.058Z,90.81
2022-11-24T13:39:06.314Z,90.02
2022-11-24T13:42:09.597Z,90.59
2022-11-24T13:45:02.057Z,89.04
2022-11-24T13:47:43.420Z,87.84
2022-11-24T13:50:23.611Z,86.33
2022-11-24T13:53:00.960Z,84.87
2022-11-24T13:55:36.589Z,81.11
2022-11-24T13:58:31.012Z,84.65
2022-11-24T14:01:07.008Z,81.93
2022-11-24T14:03:37.840Z,79.63
2022-11-24T14:06:07.514Z,80.79
2022-11-24T14:08:39.454Z,79.71
2022-11-24T14:11:15.459Z,77.31
2022-11-24T14:13:46.038Z,76.10
2022-11-24T14:16:20.366Z,79.13
2022-11-24T14:18:51.050Z,77.33
2022-11-24T14:21:28.973Z,80.16
2022-11-24T14:24:01.104Z,80.19
2022-11-24T14:26:34.398Z,77.55
2022-11-24T14:29:07.932Z,78.20
2022-11-24T14:31:37.266Z,80.32
2022-11-24T14:34:15.884Z,79.90
2022-11-24T14:36:44.884Z,79.86
2022-11-24T14:39:15.735Z,83.24
2022-11-24T14:41:51.851Z,80.90
2022-11-24T14:44:24.654Z,80.13
2022-11-24T14:47:03.225Z,79.42
2022-11-24T14:49:34.324Z,79.03
2022-11-24T14:52:09.803Z,80.62
2022-11-24T14:54:46.194Z,76.32
2022-11-24T14:57:27.015Z,75.91
2022-11-24T15:00:17.142Z,77.25
2022-11-24T15:02:49.707Z,77.63
2022-11-24T15:05:19.702Z,75.99
2022-11-24T15:07:50.646Z,76.56
2022-11-24T15:10:25.628Z,81.42
2022-11-24T15:12:59.880Z,70.51
2022-11-24T15:15:34.704Z,72.32
2022-11-24T15:18:05.908Z,73.13
2022-11-24T15:20:37.207Z,74.43
2022-11-24T15:23:25.537Z,74.47
2022-11-24T15:25:55.295Z,73.41
2022-11-24T15:28:26.075Z,72.46
2022-11-24T15:31:00.423Z,73.85
2022-11-24T15:33:29.893Z,70.16
2022-11-24T15:35:59.115Z,69.51
2022-11-24T15:38:28.393Z,69.85
2022-11-24T15:41:00.322Z,70.05
2022-11-24T15:43:32.292Z,70.31
2022-11-24T15:46:04.156Z,69.94
2022-11-24T15:48:33.647Z,70.18
2022-11-24T15:51:07.085Z,69.64
2022-11-24T15:53:39.951Z,69.45
2022-11-24T15:56:13.548Z,69.53
2022-11-24T15:58:42.539Z,75.05
2022-11-24T16:01:13.362Z,77.18
2022-11-24T16:03:47.346Z,76.45
2022-11-24T16:06:24.552Z,85.69
2022-11-24T16:08:54.168Z,86.72
2022-11-24T16:11:23.477Z,82.88
2022-11-24T16:13:54.049Z,79.76
2022-11-24T16:16:25.884Z,78.80
2022-11-24T16:18:54.820Z,72.82
2022-11-24T16:21:23.645Z,74.02
2022-11-24T16:23:52.532Z,75.84
2022-11-24T16:26:21.471Z,71.56
2022-11-24T16:28:50.388Z,93.97
2022-11-24T16:31:19.914Z,73.27
2022-11-24T16:33:50.434Z,73.30
2022-11-24T16:36:19.296Z,73.48
2022-11-24T16:38:48.184Z,79.04
2022-11-24T16:41:17.153Z,79.94
2022-11-24T16:43:46.274Z,81.74
2022-11-24T16:46:21.160Z,81.91
2022-11-24T16:48:52.416Z,84.12
2022-11-24T16:51:22.413Z,83.91
2022-11-24T16:53:58.865Z,81.60
2022-11-24T16:56:28.246Z,80.47
2022-11-24T16:58:57.608Z,87.22
2022-11-24T17:01:27.077Z,75.53
2022-11-24T17:03:57.476Z,76.39
2022-11-24T17:06:26.979Z,83.00
2022-11-24T17:08:56.459Z,85.94
2022-11-24T17:11:27.174Z,87.57
2022-11-24T17:13:57.741Z,90.21
2022-11-24T17:16:27.643Z,87.72
2022-11-24T17:18:58.895Z,84.56
2022-11-24T17:21:28.608Z,83.42
2022-11-24T17:23:58.952Z,84.56
2022-11-24T17:26:28.512Z,86.65
2022-11-24T17:28:57.395Z,89.35
2022-11-24T17:31:28.050Z,85.72
2022-11-24T17:33:59.866Z,81.51
2022-11-24T17:36:30.031Z,79.65
2022-11-24T17:39:00.526Z,80.15
2022-11-24T17:41:29.671Z,79.75
2022-11-24T17:43:58.506Z,75.99
2022-11-24T17:46:29.208Z,74.96
2022-11-24T17:48:59.829Z,74.37
2022-11-24T17:51:29.506Z,76.53
2022-11-24T17:53:58.487Z,76.83
2022-11-24T17:56:28.753Z,76.47
2022-11-24T17:58:59.594Z,78.17
2022-11-24T18:01:31.486Z,78.95
2022-11-24T18:04:02.047Z,85.14
2022-11-24T18:06:31.034Z,88.28
2022-11-24T18:08:59.924Z,92.13
2022-11-24T18:11:32.300Z,92.32
2022-11-24T18:14:04.122Z,94.98
2022-11-24T18:16:35.123Z,96.16
2022-11-24T18:19:10.736Z,94.38
2022-11-24T18:21:41.314Z,93.78
2022-11-24T18:24:11.508Z,93.43
2022-11-24T18:26:41.570Z,91.30
2022-11-24T18:29:11.545Z,91.29
2022-11-24T18:31:40.771Z,91.47
2022-11-24T18:34:11.037Z,90.06
2022-11-24T18:36:40.113Z,90.69
2022-11-24T18:39:09.834Z,89.93
2022-11-24T18:41:40.493Z,90.06
2022-11-24T18:44:10.042Z,87.76
2022-11-24T18:46:39.134Z,86.50
2022-11-24T18:49:08.148Z,86.66
2022-11-24T18:51:38.402Z,87.57
2022-11-24T18:54:07.229Z,88.84
2022-11-24T18:56:36.082Z,88.52
2022-11-24T18:59:04.955Z,88.07
2022-11-24T19:01:33.975Z,89.20
2022-11-24T19:04:03.452Z,87.17
2022-11-24T19:06:34.124Z,85.72
2022-11-24T19:09:06.908Z,86.67
2022-11-24T19:11:37.451Z,88.15
2022-11-24T19:14:08.981Z,87.69
2022-11-24T19:16:38.276Z,88.29
2022-11-24T19:19:08.110Z,90.33
2022-11-24T19:21:39.121Z,92.90
2022-11-24T19:24:11.528Z,91.57
2022-11-24T19:26:40.650Z,92.76
2022-11-24T19:29:09.879Z,93.21
2022-11-24T19:31:40.496Z,94.37
2022-11-24T19:34:09.485Z,94.40
2022-11-24T19:36:38.420Z,94.73
2022-11-24T19:39:09.024Z,95.35
2022-11-24T19:41:37.908Z,94.87
2022-11-24T19:44:08.286Z,97.48
2022-11-24T19:46:37.267Z,96.60
2022-11-24T19:49:08.215Z,97.48
2022-11-24T19:51:39.851Z,96.93
2022-11-24T19:54:12.892Z,97.15
2022-11-24T19:56:42.127Z,97.85
2022-11-24T19:59:10.991Z,96.43
2022-11-24T20:01:41.409Z,96.21
2022-11-24T20:04:12.463Z,97.78
2022-11-24T20:06:43.658Z,98.91
2022-11-24T20:09:18.293Z,100.00
2022-11-24T20:11:48.676Z,98.69
2022-11-24T20:14:19.266Z,98.59
2022-11-24T20:16:48.134Z,97.60
2022-11-24T20:19:18.687Z,98.54
2022-11-24T20:21:49.972Z,96.90
2022-11-24T20:24:21.721Z,99.78
2022-11-24T20:26:52.980Z,100.00
2022-11-24T20:29:22.058Z,100.00
2022-11-24T20:31:53.711Z,100.00
2022-11-24T20:34:23.753Z,100.00
2022-11-24T20:36:53.908Z,99.85
2022-11-24T20:39:27.821Z,99.81
2022-11-24T20:41:57.439Z,99.73
2022-11-24T20:44:27.772Z,99.22
2022-11-24T20:46:59.816Z,99.63
2022-11-24T20:49:29.573Z,100.00
2022-11-24T20:51:58.455Z,100.00
2022-11-24T20:54:29.308Z,100.00
2022-11-24T20:56:58.157Z,100.00
2022-11-24T20:59:27.030Z,100.00
2022-11-24T21:01:56.331Z,100.00
2022-11-24T21:04:27.473Z,100.00
2022-11-24T21:06:56.624Z,100.00
2022-11-24T21:09:27.258Z,100.00
2022-11-24T21:11:57.518Z,100.00
2022-11-24T21:14:28.204Z,100.00
2022-11-24T21:17:00.039Z,100.00
2022-11-24T21:19:29.756Z,100.00
2022-11-24T21:21:58.578Z,97.08
2022-11-24T21:24:27.418Z,96.76
2022-11-24T21:26:57.720Z,97.95
2022-11-24T21:29:26.568Z,97.43
2022-11-24T21:31:55.505Z,93.04
2022-11-24T21:34:24.368Z,89.70
2022-11-24T21:36:53.255Z,89.75
2022-11-24T21:39:22.205Z,91.37
2022-11-24T21:41:51.107Z,92.83
2022-11-24T21:44:21.949Z,93.69
2022-11-24T21:46:55.652Z,94.21
2022-11-24T21:49:25.123Z,92.43
2022-11-24T21:51:55.971Z,93.67
2022-11-24T21:54:25.288Z,94.70
2022-11-24T21:56:55.514Z,93.61
2022-11-24T21:59:25.787Z,90.85
2022-11-24T22:01:54.692Z,89.76
2022-11-24T22:04:23.667Z,90.64
2022-11-24T22:06:53.951Z,88.91
2022-11-24T22:09:22.854Z,90.83
2022-11-24T22:11:52.699Z,91.39
2022-11-24T22:14:21.564Z,87.21
2022-11-24T22:16:51.850Z,90.75
2022-11-24T22:19:20.919Z,89.43
2022-11-24T22:21:49.758Z,90.53
2022-11-24T22:24:21.798Z,89.07
2022-11-24T22:26:54.761Z,88.79
2022-11-24T22:29:23.621Z,90.63
2022-11-24T22:31:53.878Z,90.87
2022-11-24T22:34:22.778Z,88.73
2022-11-24T22:36:51.696Z,92.36
2022-11-24T22:39:20.599Z,90.90
2022-11-24T22:41:49.421Z,91.50
2022-11-24T22:44:18.308Z,91.05
2022-11-24T22:46:47.207Z,88.98
2022-11-24T22:49:17.458Z,91.25
2022-11-24T22:51:46.328Z,90.49
2022-11-24T22:54:15.121Z,89.06
2022-11-24T22:56:43.996Z,90.99
2022-11-24T22:59:12.830Z,89.18
2022-11-24T23:01:41.680Z,90.34
2022-11-24T23:04:10.697Z,95.08
2022-11-24T23:06:41.731Z,91.49
2022-11-24T23:09:12.805Z,91.52
2022-11-24T23:11:42.628Z,91.54
2022-11-24T23:14:15.634Z,89.33
2022-11-24T23:16:45.163Z,89.81
2022-11-24T23:19:14.084Z,89.13
2022-11-24T23:21:44.360Z,86.24
2022-11-24T23:24:13.303Z,87.53
2022-11-24T23:26:42.548Z,93.63
2022-11-24T23:29:12.137Z,92.34
2022-11-24T23:31:41.189Z,93.79
2022-11-24T23:34:10.389Z,91.48
2022-11-24T23:36:39.346Z,87.17
2022-11-24T23:39:12.287Z,85.23
2022-11-24T23:41:41.473Z,86.81
2022-11-24T23:44:10.395Z,87.87
2022-11-24T23:46:39.263Z,91.09
2022-11-24T23:49:08.112Z,90.47
2022-11-24T23:51:38.073Z,89.17
2022-11-24T23:54:10.648Z,89.11
2022-11-24T23:56:39.868Z,87.17
2022-11-24T23:59:11.765Z,93.23
